Terminal Aerodrome Forecast
Issued by NWS

Home | Current Version | Previous Version | Text Only | Print | Product List | Glossary On
Versions: 1 2 3 4 5 6 7 8 9 10 11 12 13 14 15 16
702
FTUS43 KILX 120527
TAFCMI
TAF
KCMI 120527Z 1206/1306 VRB03KT P6SM OVC080
     FM120900 23004KT 6SM -SN OVC050
     FM121300 29010KT P6SM OVC025
     FM121800 30014G24KT P6SM BKN025
     FM122100 31020G28KT P6SM SCT025=

USA.gov is the U.S. government's official web portal to all federal, state and local government web resources and services.